Date,TemperatureHighF,TemperatureAvgF,TemperatureLowF,DewpointHighF,DewpointAvgF,DewpointLowF,HumidityHigh,HumidityAvg,HumidityLow,PressureMaxIn,PressureMinIn,WindSpeedMaxMPH,WindSpeedAvgMPH,GustSpeedMaxMPH,PrecipitationSumIn
2013-2-1,26,21,18,-100,-100,-100,0,0,100,0.00,40.00,0,-999,0,0.01
2013-2-2,27,19,15,-100,-100,-100,0,0,100,0.00,40.00,0,-999,0,0.00
2013-2-3,28,20,13,-100,-100,-100,0,0,100,0.00,40.00,0,-999,0,0.00
2013-2-4,26,21,17,-100,-100,-100,0,0,100,0.00,40.00,0,-999,0,0.00
2013-2-5,29,24,20,-100,-100,-100,0,0,100,0.00,40.00,0,-999,0,0.01
2013-2-6,26,20,11,-100,-100,-100,0,0,100,0.00,40.00,0,-999,0,0.00
2013-2-7,29,16,7,-100,-100,-100,0,0,100,0.00,40.00,0,-999,0,0.00
2013-2-8,29,18,10,-100,-100,-100,0,0,100,0.00,40.00,0,-999,0,0.00
2013-2-9,24,16,11,-100,-100,-100,0,0,100,0.00,40.00,0,-999,0,0.00
2013-2-10,15,6,-10,-100,-100,-100,0,0,100,0.00,40.00,0,-999,0,0.00
2013-2-11,18,5,-13,-100,-100,-100,0,0,100,0.00,40.00,0,-999,0,0.01
2013-2-12,22,14,5,-100,-100,-100,0,0,100,0.00,40.00,0,-999,0,0.01
2013-2-13,25,19,16,-100,-100,-100,0,0,100,0.00,40.00,0,-999,0,0.02
2013-2-14,22,16,11,-100,-100,-100,0,0,100,0.00,40.00,0,-999,0,0.01
2013-2-15,25,18,13,-100,-100,-100,0,0,100,0.00,40.00,0,-999,0,0.01
2013-2-16,28,21,18,-100,-100,-100,0,0,100,0.00,40.00,0,-999,0,0.00
2013-2-17,22,18,9,-100,-100,-100,0,0,100,0.00,40.00,0,-999,0,0.01
2013-2-18,19,11,5,-100,-100,-100,0,0,100,0.00,40.00,0,-999,0,0.00
2013-2-19,30,15,3,-100,-100,-100,0,0,100,0.00,40.00,0,-999,0,0.00
2013-2-20,31,19,9,-100,-100,-100,0,0,100,0.00,40.00,0,-999,0,0.01
2013-2-21,23,12,3,-100,-100,-100,0,0,100,0.00,40.00,0,-999,0,0.00
2013-2-22,18,12,6,-100,-100,-100,0,0,100,0.00,40.00,0,-999,0,0.01
2013-2-23,23,16,9,-100,-100,-100,0,0,100,0.00,40.00,0,-999,0,0.01
2013-2-24,19,10,2,-100,-100,-100,0,0,100,0.00,40.00,0,-999,0,0.00
2013-2-25,25,15,6,-100,-100,-100,0,0,100,0.00,40.00,0,-999,0,0.01
2013-2-26,21,9,-1,-100,-100,-100,0,0,100,0.00,40.00,0,-999,0,0.00
2013-2-27,22,12,6,-100,-100,-100,0,0,100,0.00,40.00,0,-999,0,0.01
2013-2-28,24,15,8,-100,-100,-100,0,0,100,0.00,40.00,0,-999,0,0.01